Archival Weather

Republic

Farmingdale, New York (KFRG)

Report from: Friday, February 23, 2024 3:53 AM EST
Current time: Monday, June 24, 2024 7:05 AM EDT

Current weather – Weather history – Daily summaries
Weather forecast

Temperature5.6°C (42.1°F)
Wind chill3.6°C (38.4°F)
Dew point3.9°C (39.0°F)
Winds 5 kts (2.6 m/s, 5.8 mph) East-Southeast (120°)
Visibility10 mi. (16.1 km)
Clouds Sky clear
Altimeter29.57 in.Hg (1001 mB)
Precip last 3 hours0.01 in. (0 mm)
Relative humidity89 %
Density altitude-607 ft. (-185 m)
Sea-level pressure100.1 kPa (1001 mB, 29.57 in.Hg)
Remarks Fully automated report
Automated weather observing station without precipitation discriminator
Pressure falling more slowly
Flight conditions Visual Meteorological Conditions
Raw dataKFRG 230853Z AUTO 12005KT 10SM CLR 06/04 A2957 RMK AO1 SLP013 60001 T00560039 56036
An error has occurred. This application may no longer respond until reloaded. Reload 🗙